Latest Weather Observations for Kingaroy

IDQ60901

Issued at 8:31 am EST Saturday 28 February 2015 (issued every 10 minutes, with the page automatically refreshed every 10 minutes)

About weather observations | Map of Brisbane area stations | Latest observations for Brisbane area | Other Formats
Station Details ID: 040922 Name: KINGAROY AIRPORT Lat: -26.57 Lon: 151.84 Height: 433.67 m
Data from the previous 72 hours. | See also: Recent months at Kingaroy
Date/Time
EST
Tmp

°C
App
Tmp
°C
Dew
Point
°C
Rel
Hum
%
Delta-T

°C
Wind Press
QNH
hPa
Press
MSL
hPa
Rain
since
9 am
mm
Dir
 
Spd
km/h
Gust
km/h
Spd
kts
Gust
kts
28/08:30am 22.3 23.9 18.3 78 2.5 NNE 7 11 4 6 1013.3 1010.9 0.0
28/08:00am 21.8 23.4 18.2 80 2.3 N 7 11 4 6 1013.1 1010.7 0.0
28/07:00am 21.0 22.7 19.3 90 1.1 E 9 11 5 6 1012.5 1010.0 0.0
28/06:30am 19.1 22.0 18.1 94 0.6 CALM 0 0 0 0 1012.3 1009.8 0.0
28/06:00am 18.0 20.5 17.2 95 0.5 CALM 0 0 0 0 1011.9 1009.5 0.0
28/05:30am 17.9 20.3 16.9 94 0.6 CALM 0 0 0 0 1011.7 1009.2 0.0
28/05:00am 18.4 20.9 17.2 93 0.7 CALM 0 0 0 0 1011.2 1008.8 0.0
28/04:30am 19.3 22.0 17.8 91 0.9 CALM 0 0 0 0 1011.2 1008.8 0.0
28/04:00am 20.0 21.7 18.1 89 1.2 ENE 6 9 3 5 1011.0 1008.6 0.0
28/03:30am 20.7 23.3 18.5 87 1.4 ENE 2 6 1 3 1011.0 1008.6 0.0
28/03:00am 20.8 22.5 18.6 87 1.4 E 7 13 4 7 1011.2 1008.8 0.0
28/02:30am 21.0 22.4 18.6 86 1.5 E 9 11 5 6 1011.3 1008.9 0.0
28/02:00am 20.9 22.3 18.7 87 1.4 ENE 9 13 5 7 1011.5 1009.0 0.0
28/01:30am 20.4 22.5 18.9 91 1.0 ENE 6 11 3 6 1011.5 1009.0 0.0
28/01:00am 20.2 21.5 18.5 90 1.1 E 9 13 5 7 1011.3 1008.9 0.0
28/12:30am 20.5 22.3 18.4 88 1.3 E 6 9 3 5 1011.5 1009.0 0.0
28/12:00am 21.0 23.0 18.8 87 1.4 ENE 6 9 3 5 1011.4 1009.0 0.0
 
Date/Time
EST
Tmp

°C
App
Tmp
°C
Dew
Point
°C
Rel
Hum
%
Delta-T

°C
Wind Press
QNH
hPa
Press
MSL
hPa
Rain
since
9 am
mm
Dir
 
Spd
km/h
Gust
km/h
Spd
kts
Gust
kts
27/11:30pm 21.4 23.3 18.6 84 1.8 NE 6 9 3 5 1011.8 1009.3 0.0
27/11:00pm 21.5 23.2 18.5 83 1.9 E 7 13 4 7 1011.7 1009.2 0.0
27/10:30pm 21.7 23.4 18.5 82 2.0 ENE 7 11 4 6 1011.6 1009.1 0.0
27/10:00pm 22.0 24.2 18.4 80 2.3 ENE 4 9 2 5 1011.9 1009.4 0.0
27/09:00pm 22.5 24.1 19.1 81 2.2 E 9 17 5 9 1011.1 1008.7 0.0
27/08:00pm 23.5 24.7 19.0 76 2.9 E 11 17 6 9 1010.0 1007.5 0.0
27/07:30pm 24.4 25.1 18.8 71 3.6 ENE 13 24 7 13 1009.6 1007.1 0.0
27/07:00pm 25.5 25.5 18.9 67 4.3 ENE 17 22 9 12 1009.1 1006.6 0.0
27/06:30pm 26.1 28.6 19.0 65 4.6 NE 4 13 2 7 1008.8 1006.4 0.0
27/06:00pm 26.8 29.1 19.4 64 4.9 ENE 6 9 3 5 1008.5 1006.1 0.0
27/05:30pm 28.0 29.3 18.4 56 6.2 E 9 13 5 7 1008.1 1005.6 0.0
27/05:00pm 28.5 30.1 18.3 54 6.6 ENE 7 13 4 7 1007.6 1005.1 0.0
27/04:30pm 29.3 30.2 18.4 51 7.1 ENE 11 15 6 8 1007.6 1005.1 0.0
27/04:00pm 29.6 31.7 18.1 50 7.5 W 4 11 2 6 1007.7 1005.2 0.0
27/03:30pm 29.2 30.4 17.4 49 7.6 ESE 7 11 4 6 1007.7 1005.2 0.0
27/03:00pm 29.4 30.7 18.5 52 7.1 NE 9 13 5 7 1007.6 1005.1 0.0
27/02:30pm 28.6 29.2 16.8 48 7.5 N 9 13 5 7 1008.1 1005.6 0.0
27/02:00pm 28.3 30.0 18.1 54 6.6 W 6 13 3 7 1008.5 1006.1 0.0
27/01:30pm 28.2 30.2 19.1 57 6.0 ENE 7 13 4 7 1008.8 1006.4 0.0
27/01:00pm 27.5 27.8 17.9 55 6.2 NNW 13 20 7 11 1009.4 1006.9 0.0
27/12:30pm 27.2 27.4 18.5 59 5.6 NW 15 26 8 14 1009.8 1007.3 0.0
27/12:00pm 25.9 25.8 17.8 61 5.2 NNW 15 20 8 11 1010.1 1007.6 0.0
27/11:30am 25.7 26.5 19.8 70 3.9 NW 15 24 8 13 1010.5 1008.1 0.0
27/11:00am 25.2 25.4 17.7 63 4.8 NNW 13 24 7 13 1010.8 1008.4 0.0
27/10:30am 24.3 24.7 16.3 61 5.0 N 9 17 5 9 1011.5 1009.0 0.0
27/10:00am 23.4 24.2 17.4 69 3.8 NE 9 17 5 9 1011.7 1009.2 0.0
27/09:30am 22.2 23.3 18.0 77 2.7 NE 9 13 5 7 1011.7 1009.2 0.0
27/09:00am 20.2 21.9 18.0 87 1.4 NE 6 9 3 5 1011.9 1009.4 19.2
27/08:30am 18.6 19.4 17.4 93 0.7 ENE 9 17 5 9 1011.9 1009.4 19.2
27/08:00am 18.1 18.4 17.1 94 0.6 ENE 11 19 6 10 1012.3 1009.8 19.2
27/07:30am 17.9 17.7 16.8 93 0.7 N 13 17 7 9 1012.7 1010.3 18.0
27/07:00am 18.3 19.2 17.5 95 0.5 NE 9 15 5 8 1013.0 1010.6 16.0
27/06:30am 18.8 17.6 17.6 93 0.7 S 20 35 11 19 1013.0 1010.6 6.0
27/06:00am 19.7 21.5 18.7 94 0.6 SE 7 11 4 6 1011.9 1009.4 1.0
27/05:30am 19.9 21.0 18.9 94 0.6 SSE 11 15 6 8 1011.1 1008.7 0.0
27/05:00am 19.9 22.2 18.6 92 0.8 SW 4 7 2 4 1010.2 1007.7 0.0
27/04:30am 19.6 21.2 18.3 92 0.8 SE 7 9 4 5 1009.5 1007.0 0.0
27/04:00am 19.7 21.4 18.4 92 0.8 NE 7 11 4 6 1008.2 1005.7 0.0
27/03:30am 20.0 21.9 18.5 91 1.0 E 6 7 3 4 1009.6 1007.1 0.0
27/03:00am 19.8 21.5 18.5 92 0.8 E 7 9 4 5 1009.3 1006.8 0.0
27/02:30am 19.4 22.3 18.1 92 0.8 CALM 0 0 0 0 1009.4 1006.9 0.0
27/02:00am 19.3 21.9 17.6 90 1.1 CALM 0 0 0 0 1009.8 1007.3 0.0
27/01:30am 19.7 21.2 18.0 90 1.1 N 7 11 4 6 1009.7 1007.2 0.0
27/01:00am 20.3 21.9 18.2 88 1.3 NE 7 11 4 6 1009.8 1007.3 0.0
27/12:30am 20.3 22.0 18.6 90 1.1 NW 7 13 4 7 1010.2 1007.7 0.0
27/12:00am 19.8 21.3 18.1 90 1.1 NNE 7 11 4 6 1009.7 1007.2 0.0
 
Date/Time
EST
Tmp

°C
App
Tmp
°C
Dew
Point
°C
Rel
Hum
%
Delta-T

°C
Wind Press
QNH
hPa
Press
MSL
hPa
Rain
since
9 am
mm
Dir
 
Spd
km/h
Gust
km/h
Spd
kts
Gust
kts
26/11:30pm 19.9 21.6 18.0 89 1.2 ENE 6 9 3 5 1010.0 1007.5 0.0
26/11:00pm 20.4 22.2 18.2 87 1.4 E 6 9 3 5 1010.5 1008.1 0.0
26/10:30pm 20.8 22.1 18.4 86 1.5 ENE 9 13 5 7 1010.7 1008.3 0.0
26/10:00pm 21.0 22.3 18.4 85 1.7 ENE 9 15 5 8 1010.3 1007.8 0.0
26/09:30pm 21.5 23.8 18.5 83 1.9 E 4 9 2 5 1010.7 1008.3 0.0
26/09:00pm 22.0 23.0 18.6 81 2.2 ENE 11 19 6 10 1010.0 1007.5 0.0
26/08:30pm 22.6 23.8 19.0 80 2.3 ENE 11 19 6 10 1009.8 1007.3 0.0
26/08:00pm 23.6 24.0 19.1 76 2.9 ENE 15 22 8 12 1009.6 1007.1 0.0
26/07:30pm 24.7 26.1 18.6 69 3.9 ENE 9 15 5 8 1009.7 1007.2 0.0
26/07:00pm 25.1 26.2 18.1 65 4.5 ENE 9 19 5 10 1009.1 1006.6 0.0
26/06:30pm 25.8 26.4 17.7 61 5.2 ENE 11 17 6 9 1008.6 1006.2 0.0
26/06:00pm 27.0 27.4 17.2 55 6.3 E 11 17 6 9 1008.1 1005.6 0.0
26/05:30pm 27.8 28.5 17.0 51 6.9 E 9 13 5 7 1007.9 1005.4 0.0
26/05:00pm 29.1 29.5 16.3 46 8.1 ENE 9 13 5 7 1007.7 1005.2 0.0
26/04:30pm 29.2 30.5 17.1 48 7.7 SE 6 7 3 4 1007.6 1005.1 0.0
26/04:00pm 28.5 28.8 17.1 50 7.3 SE 11 17 6 9 1007.8 1005.3 0.0
26/03:30pm 29.2 30.7 16.7 46 8.0 ESE 4 7 2 4 1007.9 1005.4 0.0
26/03:00pm 29.3 29.6 16.1 44 8.3 ENE 9 15 5 8 1008.0 1005.5 0.0
26/02:30pm 28.3 29.2 16.6 49 7.4 NE 7 13 4 7 1008.4 1006.0 0.0
26/02:00pm 29.2 30.0 16.4 46 8.1 S 7 13 4 7 1008.9 1006.5 0.0
26/01:30pm 28.4 28.8 16.3 47 7.6 ENE 9 15 5 8 1009.5 1007.0 0.0
26/01:00pm 28.7 29.9 18.2 53 6.8 SW 9 13 5 7 1010.0 1007.5 0.0
26/12:30pm 28.2 29.6 16.5 49 7.4 ENE 4 9 2 5 1010.4 1007.9 0.0
26/12:00pm 28.3 30.2 19.0 57 6.1 WSW 7 11 4 6 1010.9 1008.5 0.0
26/11:30am 26.4 26.8 16.3 53 6.3 NNE 9 17 5 9 1011.2 1008.8 0.0
26/11:00am 25.6 25.9 15.9 55 6.0 NNE 9 15 5 8 1011.7 1009.2 0.0
26/10:30am 24.3 25.5 16.8 63 4.7 NNE 6 9 3 5 1012.0 1009.5 0.0
26/10:00am 24.5 25.6 18.0 67 4.2 N 9 15 5 8 1012.1 1009.6 0.0
26/09:30am 23.2 24.6 17.4 70 3.7 E 6 11 3 6 1012.1 1009.6 0.0
26/09:00am 22.4 24.0 18.2 77 2.7 SE 7 13 4 7 1012.1 1009.6 0.0
26/08:30am 22.6 23.4 19.0 80 2.3 E 13 19 7 10 1011.9 1009.4 0.0
26/08:00am 21.4 21.9 18.4 83 1.9 E 13 17 7 9 1011.9 1009.4 0.0
26/07:30am 20.7 21.6 18.5 87 1.4 SE 11 15 6 8 1011.8 1009.3 0.0
26/07:00am 19.8 21.6 18.3 91 0.9 SSE 6 7 3 4 1011.7 1009.2 0.0
26/06:30am 18.7 20.2 17.7 94 0.6 WSW 6 7 3 4 1011.3 1008.9 0.0
26/06:00am 18.5 20.1 18.2 98 0.2 SE 7 9 4 5 1011.2 1008.8 0.0
26/05:30am 17.1 18.0 16.5 96 0.4 SSE 7 9 4 5 1010.9 1008.5 0.0
26/05:00am 17.5 17.8 17.0 97 0.3 SSE 11 13 6 7 1010.7 1008.3 0.0
26/04:30am 17.4 18.4 16.8 96 0.4 SE 7 11 4 6 1010.7 1008.3 0.0
26/04:00am 17.3 18.1 16.3 94 0.6 S 7 9 4 5 1010.7 1008.3 0.0
26/03:30am 18.3 20.4 17.1 93 0.7 SSW 2 7 1 4 1010.9 1008.5 0.0
26/03:00am 18.5 19.8 17.5 94 0.6 ESE 7 9 4 5 1010.9 1008.5 0.0
26/02:30am 18.4 19.6 17.4 94 0.6 SE 7 11 4 6 1011.2 1008.8 0.0
26/02:00am 17.5 18.6 16.5 94 0.6 ESE 6 7 3 4 1011.6 1009.1 0.0
26/01:30am 17.7 18.6 16.6 93 0.7 S 7 9 4 5 1012.1 1009.6 0.0
26/01:00am 18.2 20.2 17.0 93 0.7 SE 2 7 1 4 1012.1 1009.6 0.0
26/12:30am 18.1 19.0 16.6 91 0.9 SE 7 11 4 6 1012.3 1009.8 0.0
26/12:00am 18.4 19.5 16.7 90 1.0 SW 6 7 3 4 1013.0 1010.6 0.0
 
Date/Time
EST
Tmp

°C
App
Tmp
°C
Dew
Point
°C
Rel
Hum
%
Delta-T

°C
Wind Press
QNH
hPa
Press
MSL
hPa
Rain
since
9 am
mm
Dir
 
Spd
km/h
Gust
km/h
Spd
kts
Gust
kts
25/11:30pm 18.9 20.1 16.9 88 1.2 ESE 6 7 3 4 1012.9 1010.5 0.0
25/11:00pm 19.0 20.0 16.8 87 1.4 ESE 7 11 4 6 1013.3 1010.9 0.0
25/10:30pm 19.9 19.9 17.1 84 1.7 ESE 13 17 7 9 1013.3 1010.9 0.0
25/10:00pm 20.1 20.5 17.3 84 1.7 ESE 11 19 6 10 1013.0 1010.6 0.0
25/09:30pm 20.3 21.2 17.5 84 1.7 ESE 9 13 5 7 1013.4 1011.0 0.0
25/09:00pm 20.4 20.9 17.4 83 1.9 ESE 11 13 6 7 1013.1 1010.7 0.0
25/08:30pm 21.0 21.8 17.4 80 2.3 E 9 11 5 6 1012.9 1010.5 0.0
25/08:00pm 21.6 21.7 17.4 77 2.6 E 13 17 7 9 1012.4 1009.9 0.0
25/07:30pm 22.3 22.7 17.2 73 3.2 ESE 11 17 6 9 1012.1 1009.6 0.0
25/07:00pm 23.8 24.3 17.5 68 4.0 ESE 11 17 6 9 1012.0 1009.5 0.0
25/06:30pm 23.9 24.4 17.4 67 4.1 ESE 11 15 6 8 1011.1 1008.7 0.0
25/06:00pm 25.5 25.3 17.7 62 5.0 ESE 15 22 8 12 1011.0 1008.6 0.0
25/05:30pm 26.5 26.5 18.1 60 5.4 ESE 15 22 8 12 1010.8 1008.4 0.0
25/05:00pm 27.5 27.2 18.2 57 6.0 ESE 17 24 9 13 1010.5 1008.1 0.0
25/04:30pm 28.2 27.3 15.8 47 7.8 ESE 15 26 8 14 1010.4 1007.9 0.0
25/04:00pm 28.5 27.8 16.4 48 7.7 ESE 15 26 8 14 1010.5 1008.1 0.0
25/03:30pm 28.6 28.4 17.5 51 7.1 ESE 15 24 8 13 1010.6 1008.2 0.0
25/03:00pm 29.0 29.0 18.1 51 7.1 ESE 15 30 8 16 1010.8 1008.4 0.0
25/02:30pm 27.6 27.0 16.6 51 7.0 ESE 15 22 8 12 1011.2 1008.8 0.0
25/02:00pm 27.9 27.2 16.5 50 7.2 SE 15 24 8 13 1011.5 1009.0 0.0
25/01:30pm 28.6 28.4 16.8 48 7.5 SE 13 17 7 9 1012.0 1009.5 0.0
25/01:00pm 26.9 26.9 17.1 55 6.2 SE 13 20 7 11 1012.4 1009.9 0.0
25/12:30pm 27.1 27.6 18.4 59 5.6 SE 13 20 7 11 1012.8 1010.4 0.0
25/12:00pm 26.5 25.9 17.6 58 5.7 SE 17 22 9 12 1013.2 1010.8 0.0
25/11:30am 26.1 25.6 17.7 60 5.4 ESE 17 26 9 14 1013.5 1011.1 0.0
25/11:00am 25.4 24.6 18.1 64 4.7 ESE 19 30 10 16 1013.8 1011.4 0.0
25/10:30am 25.6 25.4 18.5 65 4.6 ESE 17 28 9 15 1014.0 1011.5 0.0
25/10:00am 23.8 22.9 17.8 69 3.8 ESE 19 26 10 14 1014.2 1011.7 0.0
25/09:30am 23.9 23.1 17.9 69 3.8 ESE 19 28 10 15 1014.1 1011.6 0.0
25/09:00am 23.2 22.5 18.3 74 3.1 ESE 19 30 10 16 1014.1 1011.6 0.0

Latest Capital City Observations: Canberra | Sydney | Melbourne | Brisbane | Adelaide | Perth | Hobart | Darwin

Other Formats:

Comma delimited format used in spreadsheet applications
http://www.bom.gov.au/fwo/IDQ60901/IDQ60901.94549.axf

JavaScript Object Notation format (JSON) in row-major order
http://www.bom.gov.au/fwo/IDQ60901/IDQ60901.94549.json